Time;durP1;ratioP1;P1;durP2;ratioP2;P2;SDS_P1;SDS_P2;PMS_P1;PMS_P2;Temp;Humidity;BMP_temperature;BMP_pressure;BME280_temperature;BME280_humidity;BME280_pressure;Samples;Min_cycle;Max_cycle;Signal;HPM_P1;HPM_P2
2022/07/23 00:00:07;;;;;;;14.73;8.10;;;;;;;;;;5005982;28;20246;-76
2022/07/23 00:02:34;;;;;;;14.70;8.30;;;;;;;;;;5003296;28;20205;-77
2022/07/23 00:05:01;;;;;;;16.70;8.90;;;;;;;;;;5004130;28;20300;-75
2022/07/23 00:07:30;;;;;;;13.10;7.40;;;;;;;;;;5002351;28;20200;-76
2022/07/23 00:09:57;;;;;;;12.77;8.37;;;;;;;;;;5005392;28;20219;-76
2022/07/23 00:12:24;;;;;;;14.27;8.37;;;;;;;;;;5004445;28;20291;-76
2022/07/23 00:14:51;;;;;;;14.73;8.03;;;;;;;;;;5005844;28;20335;-76
2022/07/23 00:17:18;;;;;;;16.77;8.63;;;;;;;;;;5003940;28;20224;-76
2022/07/23 00:19:46;;;;;;;16.80;9.43;;;;;;;;;;5007486;28;20291;-76
2022/07/23 00:22:13;;;;;;;17.13;8.43;;;;;;;;;;5004844;28;20287;-76
2022/07/23 00:24:41;;;;;;;17.17;9.33;;;;;;;;;;5002429;28;20228;-76
2022/07/23 00:27:08;;;;;;;14.73;8.10;;;;;;;;;;5006992;28;20236;-76
2022/07/23 00:29:36;;;;;;;17.30;8.13;;;;;;;;;;5006199;28;20215;-77
2022/07/23 00:32:03;;;;;;;16.80;8.57;;;;;;;;;;5002984;28;20196;-77
2022/07/23 00:34:30;;;;;;;14.37;8.70;;;;;;;;;;5003500;28;20287;-76
2022/07/23 00:36:57;;;;;;;16.23;8.63;;;;;;;;;;5006364;28;20220;-76
2022/07/23 00:39:24;;;;;;;17.37;8.63;;;;;;;;;;4999391;28;20224;-76
2022/07/23 00:41:53;;;;;;;14.03;8.60;;;;;;;;;;5007725;28;20231;-76
2022/07/23 00:44:21;;;;;;;14.70;8.63;;;;;;;;;;5002520;28;20654;-76
2022/07/23 00:46:49;;;;;;;14.43;8.20;;;;;;;;;;5004189;28;20200;-76
2022/07/23 00:49:17;;;;;;;12.63;7.77;;;;;;;;;;5003579;28;20224;-76
2022/07/23 00:51:44;;;;;;;13.67;8.60;;;;;;;;;;5004478;28;20236;-76
2022/07/23 00:54:11;;;;;;;14.37;8.73;;;;;;;;;;5003529;28;20209;-76
2022/07/23 00:56:39;;;;;;;14.33;8.10;;;;;;;;;;5002157;28;21609;-76
2022/07/23 00:59:08;;;;;;;15.90;8.67;;;;;;;;;;5003433;28;20236;-78
2022/07/23 01:01:36;;;;;;;15.80;8.07;;;;;;;;;;5005737;28;20238;-77
2022/07/23 01:04:03;;;;;;;14.10;8.30;;;;;;;;;;5007897;28;20204;-77
2022/07/23 01:06:30;;;;;;;18.20;8.70;;;;;;;;;;5002307;28;20732;-77
2022/07/23 01:08:58;;;;;;;11.93;7.90;;;;;;;;;;5006496;28;20618;-77
2022/07/23 01:11:25;;;;;;;16.03;8.80;;;;;;;;;;5000377;28;20312;-78
2022/07/23 01:13:53;;;;;;;14.53;8.37;;;;;;;;;;5006796;28;20215;-78
2022/07/23 01:16:22;;;;;;;13.17;8.13;;;;;;;;;;5004838;28;20220;-77
2022/07/23 01:18:49;;;;;;;12.73;8.30;;;;;;;;;;5004052;28;20236;-77
2022/07/23 01:21:19;;;;;;;14.67;8.73;;;;;;;;;;5007969;28;20726;-77
2022/07/23 01:23:48;;;;;;;18.70;8.37;;;;;;;;;;5003081;28;20262;-76
2022/07/23 01:26:16;;;;;;;15.00;8.17;;;;;;;;;;5006790;28;20294;-77
2022/07/23 01:28:44;;;;;;;17.13;8.90;;;;;;;;;;5005090;28;20203;-77
2022/07/23 01:31:12;;;;;;;15.30;8.33;;;;;;;;;;5004302;28;20240;-78
2022/07/23 01:33:39;;;;;;;15.33;8.67;;;;;;;;;;5004063;28;20738;-77
2022/07/23 01:36:06;;;;;;;16.40;9.00;;;;;;;;;;5007186;28;20231;-77
2022/07/23 01:38:34;;;;;;;16.07;9.33;;;;;;;;;;5005975;28;20225;-77
2022/07/23 01:41:02;;;;;;;17.30;9.47;;;;;;;;;;5007036;28;20252;-77
2022/07/23 01:43:29;;;;;;;14.97;8.77;;;;;;;;;;5003315;28;20201;-77
2022/07/23 01:45:57;;;;;;;15.40;8.27;;;;;;;;;;5003656;28;20271;-76
2022/07/23 01:48:24;;;;;;;17.97;9.73;;;;;;;;;;5008887;28;20212;-76
2022/07/23 01:50:52;;;;;;;16.83;8.87;;;;;;;;;;5004914;28;20228;-77
2022/07/23 01:53:19;;;;;;;14.33;8.90;;;;;;;;;;5006997;28;20291;-77
2022/07/23 01:55:47;;;;;;;14.77;8.77;;;;;;;;;;5004379;28;20207;-77
2022/07/23 01:58:15;;;;;;;17.47;9.73;;;;;;;;;;5006761;28;20316;-77
2022/07/23 02:00:43;;;;;;;17.50;8.80;;;;;;;;;;5007358;28;20236;-77
2022/07/23 02:03:10;;;;;;;20.77;9.27;;;;;;;;;;5006908;28;20216;-77
2022/07/23 02:05:37;;;;;;;16.83;8.83;;;;;;;;;;5005664;28;20212;-77
2022/07/23 02:08:04;;;;;;;17.47;9.33;;;;;;;;;;5007929;28;20204;-77
2022/07/23 02:10:32;;;;;;;16.10;9.37;;;;;;;;;;5006648;28;20228;-77
2022/07/23 02:12:59;;;;;;;19.77;9.50;;;;;;;;;;5004259;28;20208;-77
2022/07/23 02:15:28;;;;;;;15.57;9.00;;;;;;;;;;5001549;28;21969;-78
2022/07/23 02:17:55;;;;;;;20.17;9.60;;;;;;;;;;5010279;28;20277;-78
2022/07/23 02:20:23;;;;;;;18.33;9.73;;;;;;;;;;5017065;28;20378;-78
2022/07/23 02:22:50;;;;;;;17.27;9.90;;;;;;;;;;5010314;28;20209;-77
2022/07/23 02:25:17;;;;;;;16.37;9.57;;;;;;;;;;5014743;28;20276;-78
2022/07/23 02:27:44;;;;;;;14.40;8.53;;;;;;;;;;5008519;28;20670;-77
2022/07/23 02:30:12;;;;;;;18.03;9.67;;;;;;;;;;5003925;28;20263;-77
2022/07/23 02:32:41;;;;;;;15.23;9.03;;;;;;;;;;5006488;28;20340;-77
2022/07/23 02:35:08;;;;;;;14.40;9.23;;;;;;;;;;5004201;28;20566;-77
2022/07/23 02:37:35;;;;;;;19.43;9.17;;;;;;;;;;5004288;28;20299;-77
2022/07/23 02:40:03;;;;;;;16.90;9.47;;;;;;;;;;5002866;28;20306;-77
2022/07/23 02:42:30;;;;;;;14.57;9.40;;;;;;;;;;5002693;28;20212;-77
2022/07/23 02:44:57;;;;;;;15.60;9.43;;;;;;;;;;5004420;28;20217;-77
2022/07/23 02:47:24;;;;;;;14.00;8.67;;;;;;;;;;5004339;28;20205;-77
2022/07/23 02:49:53;;;;;;;15.33;9.47;;;;;;;;;;5007538;28;20208;-77
2022/07/23 02:52:20;;;;;;;17.30;9.10;;;;;;;;;;5005207;28;20215;-77
2022/07/23 02:54:47;;;;;;;15.53;8.97;;;;;;;;;;5006044;28;20192;-77
2022/07/23 02:57:15;;;;;;;13.60;9.10;;;;;;;;;;5003323;28;20214;-76
2022/07/23 02:59:42;;;;;;;16.37;9.37;;;;;;;;;;5002314;28;20328;-77
2022/07/23 03:02:09;;;;;;;19.83;9.80;;;;;;;;;;5006237;28;20196;-77
2022/07/23 03:04:36;;;;;;;17.50;9.10;;;;;;;;;;5001371;28;20236;-77
2022/07/23 03:07:05;;;;;;;16.57;9.10;;;;;;;;;;5003757;28;20209;-77
2022/07/23 03:09:32;;;;;;;22.50;10.20;;;;;;;;;;5003347;28;20232;-77
2022/07/23 03:11:59;;;;;;;17.10;9.20;;;;;;;;;;5002489;28;20224;-77
2022/07/23 03:14:27;;;;;;;15.60;9.77;;;;;;;;;;5004658;28;20676;-77
2022/07/23 03:16:54;;;;;;;17.60;9.93;;;;;;;;;;5002067;28;20585;-77
2022/07/23 03:19:21;;;;;;;15.67;9.13;;;;;;;;;;5004292;28;20231;-77
2022/07/23 03:21:49;;;;;;;19.53;9.00;;;;;;;;;;5002640;28;20308;-77
2022/07/23 03:24:18;;;;;;;13.17;8.37;;;;;;;;;;5003251;28;20232;-77
2022/07/23 03:26:45;;;;;;;14.77;8.93;;;;;;;;;;5002295;28;20213;-77
2022/07/23 03:29:12;;;;;;;17.33;9.70;;;;;;;;;;5004121;28;20212;-76
2022/07/23 03:31:40;;;;;;;17.33;8.90;;;;;;;;;;5002034;28;22019;-77
2022/07/23 03:34:07;;;;;;;19.10;9.40;;;;;;;;;;5002312;28;20733;-76
2022/07/23 03:36:34;;;;;;;16.00;9.17;;;;;;;;;;5005163;28;20670;-77
2022/07/23 03:39:01;;;;;;;14.40;7.83;;;;;;;;;;5004296;28;20292;-78
2022/07/23 03:41:30;;;;;;;13.87;8.63;;;;;;;;;;5007859;28;20239;-77
2022/07/23 03:43:57;;;;;;;16.17;8.73;;;;;;;;;;5008578;28;20212;-77
2022/07/23 03:46:24;;;;;;;17.63;8.20;;;;;;;;;;5007272;28;20214;-77
2022/07/23 03:48:51;;;;;;;13.63;8.23;;;;;;;;;;5005051;28;20224;-77
2022/07/23 03:51:18;;;;;;;16.53;8.60;;;;;;;;;;5004448;28;20307;-77
2022/07/23 03:53:46;;;;;;;15.73;8.37;;;;;;;;;;5007470;28;20201;-77
2022/07/23 03:56:13;;;;;;;15.33;8.77;;;;;;;;;;5008686;28;20205;-77
2022/07/23 03:58:42;;;;;;;15.33;7.20;;;;;;;;;;5008786;28;20251;-77
2022/07/23 04:01:09;;;;;;;13.53;7.83;;;;;;;;;;5009859;28;20322;-77
2022/07/23 04:03:36;;;;;;;14.70;7.83;;;;;;;;;;5008079;28;20248;-78
2022/07/23 04:06:03;;;;;;;13.83;7.60;;;;;;;;;;5007928;28;20278;-77
2022/07/23 04:08:30;;;;;;;12.00;7.97;;;;;;;;;;5002277;28;20273;-78
2022/07/23 04:10:57;;;;;;;12.47;8.17;;;;;;;;;;5009617;28;20220;-77
2022/07/23 04:13:24;;;;;;;16.17;7.43;;;;;;;;;;5004254;28;20205;-77
2022/07/23 04:15:53;;;;;;;13.63;7.63;;;;;;;;;;5009756;28;20715;-78
2022/07/23 04:18:21;;;;;;;14.00;7.80;;;;;;;;;;5006644;28;20220;-78
2022/07/23 04:20:49;;;;;;;12.40;6.87;;;;;;;;;;5007028;28;20251;-77
2022/07/23 04:23:16;;;;;;;11.07;7.63;;;;;;;;;;5007108;28;20653;-77
2022/07/23 04:25:44;;;;;;;11.80;7.30;;;;;;;;;;5005753;28;20586;-77
2022/07/23 04:28:11;;;;;;;13.73;7.57;;;;;;;;;;5006590;28;20262;-77
2022/07/23 04:30:38;;;;;;;13.23;7.63;;;;;;;;;;5005966;28;20670;-77
2022/07/23 04:33:07;;;;;;;13.13;7.37;;;;;;;;;;5005503;28;20223;-77
2022/07/23 04:35:34;;;;;;;13.27;7.63;;;;;;;;;;5003397;28;20683;-77
2022/07/23 04:38:01;;;;;;;13.70;7.83;;;;;;;;;;5004242;28;20259;-78
2022/07/23 04:40:28;;;;;;;15.73;8.30;;;;;;;;;;5009217;28;20301;-77
2022/07/23 04:42:56;;;;;;;12.37;7.47;;;;;;;;;;5006695;28;20204;-77
2022/07/23 04:45:24;;;;;;;13.43;8.30;;;;;;;;;;5002990;28;20292;-77
2022/07/23 04:47:52;;;;;;;16.30;8.50;;;;;;;;;;5007239;28;20290;-76
2022/07/23 04:50:22;;;;;;;15.63;7.93;;;;;;;;;;5006912;28;20238;-78
2022/07/23 04:52:49;;;;;;;16.57;8.20;;;;;;;;;;5007152;28;20215;-77
2022/07/23 04:55:16;;;;;;;13.07;8.30;;;;;;;;;;5007356;28;20232;-77
2022/07/23 04:57:44;;;;;;;12.00;7.00;;;;;;;;;;5005185;28;20205;-78
2022/07/23 05:00:11;;;;;;;11.23;6.83;;;;;;;;;;5006169;28;20720;-77
2022/07/23 05:02:39;;;;;;;11.33;7.27;;;;;;;;;;5008544;28;20255;-76
2022/07/23 05:05:06;;;;;;;12.50;7.17;;;;;;;;;;5003570;28;20208;-77
2022/07/23 05:07:35;;;;;;;9.63;6.53;;;;;;;;;;5004194;28;20232;-77
2022/07/23 05:10:02;;;;;;;11.87;6.63;;;;;;;;;;5004553;28;20454;-77
2022/07/23 05:12:29;;;;;;;14.83;7.80;;;;;;;;;;5002233;28;20288;-76
2022/07/23 05:14:57;;;;;;;12.43;7.20;;;;;;;;;;5002458;28;20209;-77
2022/07/23 05:17:24;;;;;;;12.13;7.30;;;;;;;;;;5001890;28;20254;-76
2022/07/23 05:19:51;;;;;;;14.03;7.30;;;;;;;;;;5004158;28;20315;-77
2022/07/23 05:22:18;;;;;;;9.93;6.70;;;;;;;;;;5002853;28;20219;-77
2022/07/23 05:24:47;;;;;;;11.67;6.97;;;;;;;;;;5001427;28;20207;-76
2022/07/23 05:27:14;;;;;;;13.30;7.30;;;;;;;;;;5005640;28;20216;-75
2022/07/23 05:29:41;;;;;;;15.70;7.17;;;;;;;;;;5005211;28;20320;-77
2022/07/23 05:32:08;;;;;;;11.40;6.90;;;;;;;;;;5005469;28;20208;-77
2022/07/23 05:34:35;;;;;;;10.60;6.90;;;;;;;;;;5005908;28;20207;-77
2022/07/23 05:37:02;;;;;;;10.27;6.80;;;;;;;;;;5010195;28;20200;-76
2022/07/23 05:39:30;;;;;;;9.53;6.13;;;;;;;;;;5005090;28;20250;-76
2022/07/23 05:41:59;;;;;;;10.27;6.20;;;;;;;;;;5006256;28;20243;-76
2022/07/23 05:44:27;;;;;;;11.20;5.83;;;;;;;;;;5003687;28;20208;-76
2022/07/23 05:46:54;;;;;;;8.50;5.30;;;;;;;;;;5003463;28;20243;-76
2022/07/23 05:49:21;;;;;;;10.20;5.90;;;;;;;;;;5009942;28;20215;-77
2022/07/23 05:51:48;;;;;;;7.83;5.30;;;;;;;;;;5005072;28;20220;-77
2022/07/23 05:54:16;;;;;;;11.00;5.80;;;;;;;;;;5006841;28;20296;-76
2022/07/23 05:56:43;;;;;;;9.47;5.47;;;;;;;;;;5003768;28;20235;-77
2022/07/23 05:59:12;;;;;;;7.60;5.23;;;;;;;;;;5006141;28;20707;-76
2022/07/23 06:01:39;;;;;;;8.70;5.27;;;;;;;;;;5005236;28;20225;-77
2022/07/23 06:04:07;;;;;;;9.90;5.53;;;;;;;;;;5002907;28;20204;-78
2022/07/23 06:06:34;;;;;;;7.77;4.30;;;;;;;;;;5003635;28;20238;-77
2022/07/23 06:09:01;;;;;;;8.73;5.17;;;;;;;;;;5002352;28;20393;-77
2022/07/23 06:11:29;;;;;;;11.83;4.70;;;;;;;;;;5002422;28;20304;-77
2022/07/23 06:13:56;;;;;;;5.17;4.23;;;;;;;;;;5006448;28;20231;-77
2022/07/23 06:16:25;;;;;;;6.43;4.83;;;;;;;;;;5004193;28;20698;-77
2022/07/23 06:18:52;;;;;;;6.00;4.27;;;;;;;;;;5002640;28;20224;-76
2022/07/23 06:21:19;;;;;;;7.87;4.33;;;;;;;;;;5005414;28;20238;-77
2022/07/23 06:23:46;;;;;;;9.57;4.30;;;;;;;;;;5004476;28;20290;-77
2022/07/23 06:26:13;;;;;;;5.53;4.00;;;;;;;;;;5005858;28;20210;-77
2022/07/23 06:28:40;;;;;;;6.20;4.13;;;;;;;;;;5006743;28;20208;-77
2022/07/23 06:31:08;;;;;;;8.13;4.23;;;;;;;;;;5002553;28;20220;-77
2022/07/23 06:33:36;;;;;;;7.97;4.23;;;;;;;;;;5004915;28;20204;-77
2022/07/23 06:36:04;;;;;;;7.40;4.23;;;;;;;;;;5001461;28;20210;-77
2022/07/23 06:38:31;;;;;;;7.47;4.03;;;;;;;;;;5002754;28;20224;-77
2022/07/23 06:40:58;;;;;;;5.07;3.77;;;;;;;;;;5001672;28;20246;-77
2022/07/23 06:43:25;;;;;;;8.70;4.20;;;;;;;;;;5002469;28;20212;-77
2022/07/23 06:45:52;;;;;;;6.03;4.00;;;;;;;;;;5005788;28;20702;-77
2022/07/23 06:48:19;;;;;;;6.37;4.60;;;;;;;;;;5002381;28;20201;-77
2022/07/23 06:50:48;;;;;;;7.00;4.50;;;;;;;;;;5006460;28;20310;-77
2022/07/23 06:53:15;;;;;;;8.33;4.43;;;;;;;;;;5002716;28;21458;-77
2022/07/23 06:55:42;;;;;;;7.27;4.13;;;;;;;;;;5006371;28;20211;-78
2022/07/23 06:58:10;;;;;;;7.73;4.80;;;;;;;;;;5004862;28;20205;-77
2022/07/23 07:00:37;;;;;;;5.67;4.00;;;;;;;;;;5002389;28;20242;-77
2022/07/23 07:03:04;;;;;;;8.30;3.73;;;;;;;;;;5002547;28;20207;-76
2022/07/23 07:05:32;;;;;;;8.10;4.00;;;;;;;;;;5004578;28;20713;-77
2022/07/23 07:08:00;;;;;;;6.97;3.97;;;;;;;;;;5001960;28;20203;-77
2022/07/23 07:10:27;;;;;;;13.00;4.27;;;;;;;;;;4998577;28;20722;-77
2022/07/23 07:12:55;;;;;;;6.93;4.33;;;;;;;;;;5006743;28;20837;-77
2022/07/23 07:15:22;;;;;;;8.10;4.30;;;;;;;;;;5000483;28;20208;-76
2022/07/23 07:17:49;;;;;;;5.27;4.17;;;;;;;;;;5006674;28;20746;-78
2022/07/23 07:20:16;;;;;;;5.47;4.10;;;;;;;;;;5002866;28;20228;-77
2022/07/23 07:22:44;;;;;;;7.07;4.17;;;;;;;;;;5000403;28;20311;-77
2022/07/23 07:25:12;;;;;;;5.60;4.00;;;;;;;;;;5001913;28;20207;-76
2022/07/23 07:27:39;;;;;;;5.83;4.20;;;;;;;;;;5003756;28;21471;-77
2022/07/23 07:30:07;;;;;;;7.43;3.90;;;;;;;;;;5009471;28;20227;-77
2022/07/23 07:32:36;;;;;;;6.93;4.13;;;;;;;;;;5007650;28;20288;-77
2022/07/23 07:35:03;;;;;;;6.97;4.20;;;;;;;;;;5007516;28;20226;-77
2022/07/23 07:37:31;;;;;;;6.30;3.90;;;;;;;;;;5007756;28;20233;-77
2022/07/23 07:39:58;;;;;;;6.03;3.43;;;;;;;;;;5008619;28;20228;-77
2022/07/23 07:42:27;;;;;;;4.83;3.60;;;;;;;;;;5007752;28;20207;-77
2022/07/23 07:44:54;;;;;;;7.00;4.20;;;;;;;;;;5006473;28;20299;-78
2022/07/23 07:47:21;;;;;;;5.00;3.53;;;;;;;;;;5009275;28;20348;-77
2022/07/23 07:49:48;;;;;;;5.57;3.93;;;;;;;;;;5007383;28;20288;-78
2022/07/23 07:52:15;;;;;;;6.13;4.33;;;;;;;;;;5005078;28;20284;-77
2022/07/23 07:54:43;;;;;;;6.10;4.00;;;;;;;;;;5006507;28;20200;-77
2022/07/23 07:57:10;;;;;;;5.43;3.90;;;;;;;;;;5007271;28;20612;-77
2022/07/23 07:59:39;;;;;;;5.50;3.85;;;;;;;;;;5003891;28;20221;-77
2022/07/23 08:02:06;;;;;;;4.88;3.70;;;;;;;;;;5005546;28;21169;-78
2022/07/23 08:04:33;;;;;;;7.85;3.53;;;;;;;;;;5003925;28;20210;-77
2022/07/23 08:07:00;;;;;;;5.25;4.00;;;;;;;;;;5003836;28;20200;-77
2022/07/23 08:09:27;;;;;;;4.70;3.75;;;;;;;;;;5006267;28;20354;-76
2022/07/23 08:11:55;;;;;;;8.00;4.25;;;;;;;;;;5002381;28;20324;-78
2022/07/23 08:14:22;;;;;;;8.20;3.60;;;;;;;;;;5006091;28;20643;-77
2022/07/23 08:16:50;;;;;;;7.90;3.97;;;;;;;;;;5006538;28;20307;-76
2022/07/23 08:19:18;;;;;;;6.68;4.25;;;;;;;;;;5004857;28;20227;-77
2022/07/23 08:21:45;;;;;;;7.18;3.92;;;;;;;;;;5003803;28;20620;-79
2022/07/23 08:24:12;;;;;;;5.30;3.90;;;;;;;;;;5006051;28;20562;-76
2022/07/23 08:26:39;;;;;;;7.20;4.25;;;;;;;;;;5003302;28;20210;-77
2022/07/23 08:29:06;;;;;;;5.25;3.80;;;;;;;;;;5004522;28;20212;-77
2022/07/23 08:31:33;;;;;;;8.75;4.13;;;;;;;;;;5002782;28;20252;-77
2022/07/23 08:34:02;;;;;;;6.10;3.80;;;;;;;;;;5003496;28;20324;-78
2022/07/23 08:36:31;;;;;;;6.63;4.05;;;;;;;;;;5004399;28;20217;-77
2022/07/23 08:38:59;;;;;;;7.90;4.30;;;;;;;;;;5002843;28;20208;-77
2022/07/23 08:41:26;;;;;;;7.45;4.13;;;;;;;;;;5005192;28;20315;-77
2022/07/23 08:43:53;;;;;;;6.13;4.43;;;;;;;;;;5005054;28;20299;-76
2022/07/23 08:46:21;;;;;;;5.80;4.27;;;;;;;;;;5006562;28;20201;-78
2022/07/23 08:48:49;;;;;;;5.23;4.23;;;;;;;;;;5001065;28;20201;-77
2022/07/23 08:51:18;;;;;;;5.20;4.03;;;;;;;;;;5004055;28;20291;-76
2022/07/23 08:53:46;;;;;;;7.27;4.30;;;;;;;;;;5005656;28;20212;-78
2022/07/23 08:56:13;;;;;;;7.10;4.83;;;;;;;;;;5002291;28;20208;-78
2022/07/23 08:58:40;;;;;;;8.80;4.90;;;;;;;;;;5002849;28;20284;-77
2022/07/23 09:01:07;;;;;;;9.80;5.30;;;;;;;;;;5000772;28;20323;-78
2022/07/23 09:03:35;;;;;;;8.50;5.27;;;;;;;;;;5003931;28;20200;-76
2022/07/23 09:06:03;;;;;;;7.33;4.60;;;;;;;;;;5003271;28;20643;-76
2022/07/23 09:08:37;;;;;;;8.33;4.90;;;;;;;;;;5006456;28;20694;-76
2022/07/23 09:11:05;;;;;;;7.33;4.80;;;;;;;;;;5005960;28;20314;-76
2022/07/23 09:13:34;;;;;;;8.20;5.03;;;;;;;;;;5002962;28;20239;-76
2022/07/23 09:16:02;;;;;;;8.60;4.87;;;;;;;;;;5006548;28;20251;-76
2022/07/23 09:18:31;;;;;;;9.17;5.03;;;;;;;;;;5001757;28;20204;-76
2022/07/23 09:21:11;;;;;;;8.00;4.43;;;;;;;;;;5008867;28;20305;-77
2022/07/23 09:23:40;;;;;;;7.80;4.37;;;;;;;;;;5001606;28;20279;-77
2022/07/23 09:26:34;;;;;;;8.90;3.80;;;;;;;;;;5004113;28;20204;-77
2022/07/23 09:29:03;;;;;;;4.17;3.30;;;;;;;;;;4963873;28;20239;-77
2022/07/23 09:31:35;;;;;;;6.63;3.40;;;;;;;;;;5001591;28;20757;-77
2022/07/23 09:34:10;;;;;;;4.93;3.20;;;;;;;;;;5000754;28;20207;-77
2022/07/23 09:36:37;;;;;;;3.60;2.80;;;;;;;;;;5004332;28;20212;-76
2022/07/23 09:39:06;;;;;;;5.63;2.90;;;;;;;;;;5009107;28;21198;-75
2022/07/23 09:41:41;;;;;;;4.90;2.63;;;;;;;;;;5002075;28;20240;-76
2022/07/23 09:44:09;;;;;;;3.80;2.93;;;;;;;;;;5006194;28;20197;-75
2022/07/23 09:46:36;;;;;;;3.73;2.50;;;;;;;;;;4998235;28;20209;-78
2022/07/23 09:49:13;;;;;;;6.60;2.87;;;;;;;;;;5008839;28;20247;-78
2022/07/23 09:51:45;;;;;;;6.33;2.70;;;;;;;;;;5000659;28;20315;-75
2022/07/23 09:54:24;;;;;;;4.33;2.80;;;;;;;;;;5000396;28;20212;-77
2022/07/23 09:56:51;;;;;;;4.03;2.83;;;;;;;;;;5008075;28;20236;-75
2022/07/23 09:59:18;;;;;;;3.37;2.50;;;;;;;;;;5001249;28;20296;-76
2022/07/23 10:01:46;;;;;;;7.20;2.50;;;;;;;;;;5002840;28;20322;-75
2022/07/23 10:04:13;;;;;;;5.93;2.53;;;;;;;;;;4999991;28;20642;-76
2022/07/23 10:06:41;;;;;;;3.23;2.03;;;;;;;;;;5003782;28;20291;-76
2022/07/23 10:09:08;;;;;;;3.83;2.40;;;;;;;;;;5002407;28;20714;-76
2022/07/23 10:11:37;;;;;;;3.40;2.10;;;;;;;;;;5003022;28;20312;-76
2022/07/23 10:14:04;;;;;;;3.50;2.10;;;;;;;;;;5000813;28;20204;-75
2022/07/23 10:16:31;;;;;;;3.23;2.20;;;;;;;;;;4997038;28;20250;-76
2022/07/23 10:18:59;;;;;;;3.50;2.23;;;;;;;;;;5006322;28;20205;-76
2022/07/23 10:21:29;;;;;;;4.80;2.43;;;;;;;;;;5008350;28;20249;-76
2022/07/23 10:24:03;;;;;;;4.90;2.27;;;;;;;;;;5004728;28;20207;-76
2022/07/23 10:26:36;;;;;;;3.77;2.00;;;;;;;;;;5000757;28;20204;-76
2022/07/23 10:29:11;;;;;;;3.83;2.00;;;;;;;;;;5002123;28;20213;-76
2022/07/23 10:31:42;;;;;;;3.97;2.20;;;;;;;;;;4998516;28;20610;-76
2022/07/23 10:34:13;;;;;;;4.93;2.30;;;;;;;;;;5002583;28;20288;-76
2022/07/23 10:36:44;;;;;;;6.00;2.20;;;;;;;;;;5004788;28;20207;-75
2022/07/23 10:39:15;;;;;;;5.40;2.00;;;;;;;;;;5003345;28;20200;-76
2022/07/23 10:41:43;;;;;;;6.20;2.23;;;;;;;;;;4998000;28;20279;-75
2022/07/23 10:44:13;;;;;;;3.30;2.30;;;;;;;;;;4995198;28;20236;-75
2022/07/23 10:49:37;;;;;;;5.97;2.00;;;;;;;;;;4995145;28;20680;-76
2022/07/23 10:52:17;;;;;;;3.53;2.13;;;;;;;;;;5006641;28;20203;-76
2022/07/23 10:54:45;;;;;;;3.43;2.40;;;;;;;;;;4999132;28;20294;-76
2022/07/23 10:57:13;;;;;;;5.23;2.40;;;;;;;;;;5002582;28;20233;-76
2022/07/23 10:59:58;;;;;;;5.30;2.37;;;;;;;;;;5003082;28;20694;-75
2022/07/23 11:02:29;;;;;;;2.97;2.00;;;;;;;;;;5006697;28;20228;-76
2022/07/23 11:05:01;;;;;;;2.50;2.30;;;;;;;;;;5010319;28;20203;-75
2022/07/23 11:07:28;;;;;;;4.47;2.53;;;;;;;;;;5010696;28;20236;-76
2022/07/23 11:09:56;;;;;;;3.30;2.07;;;;;;;;;;5005046;28;20298;-75
2022/07/23 11:12:38;;;;;;;2.53;2.00;;;;;;;;;;5007880;28;20296;-75
2022/07/23 11:15:07;;;;;;;2.53;2.00;;;;;;;;;;5010767;28;20200;-75
2022/07/23 11:17:36;;;;;;;3.50;2.20;;;;;;;;;;5006080;28;20274;-76
2022/07/23 11:20:23;;;;;;;3.80;2.03;;;;;;;;;;5006074;28;20314;-77
2022/07/23 11:22:51;;;;;;;5.77;2.57;;;;;;;;;;5003938;28;20737;-75
2022/07/23 11:25:32;;;;;;;5.90;2.00;;;;;;;;;;5005741;28;20205;-75
2022/07/23 11:28:09;;;;;;;3.10;2.33;;;;;;;;;;5006207;28;21238;-76
2022/07/23 11:30:41;;;;;;;5.13;2.23;;;;;;;;;;5004746;28;20220;-76
2022/07/23 11:33:20;;;;;;;3.53;2.33;;;;;;;;;;5009414;28;20200;-76
2022/07/23 11:35:49;;;;;;;4.90;2.57;;;;;;;;;;5008380;28;20681;-76
2022/07/23 11:38:16;;;;;;;5.60;2.40;;;;;;;;;;5008989;28;20208;-76
2022/07/23 11:40:45;;;;;;;2.83;2.37;;;;;;;;;;5008524;28;20231;-76
2022/07/23 11:43:12;;;;;;;5.43;2.50;;;;;;;;;;4999171;28;21058;-76
2022/07/23 11:45:40;;;;;;;4.50;2.40;;;;;;;;;;5005776;28;20224;-75
2022/07/23 11:48:08;;;;;;;3.33;2.50;;;;;;;;;;5008733;28;20212;-76
2022/07/23 11:50:37;;;;;;;5.83;2.90;;;;;;;;;;5006745;28;20274;-76
2022/07/23 11:53:05;;;;;;;4.63;2.70;;;;;;;;;;5004677;28;20207;-76
2022/07/23 11:55:32;;;;;;;6.30;2.90;;;;;;;;;;5008812;28;20282;-76
2022/07/23 11:57:59;;;;;;;3.13;2.50;;;;;;;;;;5004419;28;20286;-75
2022/07/23 12:00:27;;;;;;;3.93;2.30;;;;;;;;;;5007688;28;20694;-75
2022/07/23 12:02:58;;;;;;;4.57;2.37;;;;;;;;;;5006870;28;20732;-76
2022/07/23 12:05:26;;;;;;;3.70;2.60;;;;;;;;;;5008294;28;20212;-76
2022/07/23 12:07:55;;;;;;;4.83;2.57;;;;;;;;;;5002330;28;20659;-77
2022/07/23 12:10:24;;;;;;;4.67;2.57;;;;;;;;;;5007846;28;20659;-76
2022/07/23 12:12:52;;;;;;;3.90;2.57;;;;;;;;;;5003821;28;20222;-77
2022/07/23 12:15:20;;;;;;;5.70;2.60;;;;;;;;;;5010010;28;20201;-76
2022/07/23 12:17:49;;;;;;;3.70;2.53;;;;;;;;;;5011386;28;20196;-76
2022/07/23 12:20:18;;;;;;;6.70;2.43;;;;;;;;;;5006735;28;20244;-77
2022/07/23 12:22:45;;;;;;;8.63;2.63;;;;;;;;;;5011309;28;20288;-77
2022/07/23 12:25:15;;;;;;;3.60;2.33;;;;;;;;;;5008187;28;20211;-77
2022/07/23 12:27:42;;;;;;;4.13;2.70;;;;;;;;;;5006399;28;20204;-77
2022/07/23 12:30:20;;;;;;;3.50;2.37;;;;;;;;;;5009470;28;20339;-77
2022/07/23 12:32:49;;;;;;;5.27;2.70;;;;;;;;;;5005684;28;20891;-77
2022/07/23 12:35:16;;;;;;;7.37;2.67;;;;;;;;;;5006000;28;20208;-77
2022/07/23 12:37:45;;;;;;;6.73;2.70;;;;;;;;;;5009851;28;20283;-77
2022/07/23 12:40:24;;;;;;;13.33;3.17;;;;;;;;;;5003849;28;20311;-77
2022/07/23 12:42:53;;;;;;;6.63;2.37;;;;;;;;;;5005769;28;21002;-75
2022/07/23 12:45:20;;;;;;;14.53;2.97;;;;;;;;;;5006943;28;20295;-77
2022/07/23 12:47:54;;;;;;;4.20;2.47;;;;;;;;;;5006033;28;20737;-77
2022/07/23 12:50:42;;;;;;;6.97;2.63;;;;;;;;;;5008098;28;20225;-77
2022/07/23 12:53:10;;;;;;;3.77;2.50;;;;;;;;;;5004387;28;20722;-77
2022/07/23 12:55:40;;;;;;;3.23;2.30;;;;;;;;;;5010153;28;20311;-77
2022/07/23 12:58:08;;;;;;;6.97;2.90;;;;;;;;;;5006650;28;20208;-77
2022/07/23 13:00:50;;;;;;;4.07;2.40;;;;;;;;;;5005245;28;20298;-77
2022/07/23 13:03:24;;;;;;;4.43;2.50;;;;;;;;;;5007552;28;20286;-77
2022/07/23 13:05:51;;;;;;;2.80;2.40;;;;;;;;;;5005537;28;20204;-76
2022/07/23 13:08:18;;;;;;;4.97;2.43;;;;;;;;;;5005635;28;20247;-77
2022/07/23 13:10:48;;;;;;;6.97;2.40;;;;;;;;;;5000814;28;20244;-76
2022/07/23 13:13:16;;;;;;;3.70;2.43;;;;;;;;;;5006827;28;20207;-77
2022/07/23 13:15:43;;;;;;;4.83;2.40;;;;;;;;;;5005460;28;20584;-77
2022/07/23 13:18:10;;;;;;;4.93;2.80;;;;;;;;;;5002927;28;20208;-77
2022/07/23 13:20:39;;;;;;;3.53;2.27;;;;;;;;;;5005860;28;20251;-77
2022/07/23 13:23:06;;;;;;;3.77;2.67;;;;;;;;;;5006174;28;20211;-77
2022/07/23 13:25:33;;;;;;;3.30;2.33;;;;;;;;;;5004131;28;20197;-78
2022/07/23 13:28:02;;;;;;;9.80;2.73;;;;;;;;;;5007215;28;20292;-76
2022/07/23 13:30:29;;;;;;;5.27;3.00;;;;;;;;;;5002928;28;20224;-77
2022/07/23 13:32:56;;;;;;;8.10;2.90;;;;;;;;;;5005783;28;21938;-76
2022/07/23 13:35:24;;;;;;;7.73;2.90;;;;;;;;;;5006287;28;20204;-77
2022/07/23 13:37:51;;;;;;;4.77;3.00;;;;;;;;;;5006057;28;20235;-76
2022/07/23 13:40:18;;;;;;;11.63;2.90;;;;;;;;;;5002257;28;20224;-75
2022/07/23 13:42:45;;;;;;;6.87;3.00;;;;;;;;;;5001994;28;20262;-76
2022/07/23 13:45:14;;;;;;;5.30;2.50;;;;;;;;;;4997856;28;20236;-76
2022/07/23 13:47:41;;;;;;;6.23;2.90;;;;;;;;;;5001205;28;20200;-76
2022/07/23 13:50:09;;;;;;;5.00;2.93;;;;;;;;;;5004570;28;20230;-76
2022/07/23 13:52:36;;;;;;;5.63;2.80;;;;;;;;;;5004535;28;20212;-76
2022/07/23 13:55:04;;;;;;;5.60;3.07;;;;;;;;;;5004633;28;20688;-76
2022/07/23 13:57:31;;;;;;;5.20;2.50;;;;;;;;;;5003918;28;20204;-76
2022/07/23 13:59:58;;;;;;;4.40;3.13;;;;;;;;;;5006341;28;20795;-76
2022/07/23 14:02:27;;;;;;;5.53;2.90;;;;;;;;;;5003217;28;20224;-76
2022/07/23 14:04:54;;;;;;;11.37;3.20;;;;;;;;;;5002824;28;20212;-76
2022/07/23 14:07:21;;;;;;;5.97;3.10;;;;;;;;;;5005405;28;20215;-76
2022/07/23 14:09:49;;;;;;;3.53;2.83;;;;;;;;;;5001550;28;20300;-76
2022/07/23 14:12:16;;;;;;;4.40;2.83;;;;;;;;;;5007617;28;20211;-77
2022/07/23 14:14:44;;;;;;;5.30;2.80;;;;;;;;;;5001292;28;20215;-76
2022/07/23 14:17:11;;;;;;;6.03;2.77;;;;;;;;;;4998510;28;20219;-76
2022/07/23 14:19:39;;;;;;;19.20;3.57;;;;;;;;;;5001693;28;20212;-76
2022/07/23 14:22:07;;;;;;;8.93;3.20;;;;;;;;;;5002020;28;20224;-76
2022/07/23 14:24:34;;;;;;;16.93;3.23;;;;;;;;;;5000075;28;20212;-76
2022/07/23 14:27:02;;;;;;;5.43;2.77;;;;;;;;;;5005778;28;20212;-77
2022/07/23 14:29:29;;;;;;;6.30;3.00;;;;;;;;;;5003828;28;20570;-76
2022/07/23 14:31:57;;;;;;;7.13;3.47;;;;;;;;;;5006222;28;20231;-76
2022/07/23 14:34:24;;;;;;;8.23;3.37;;;;;;;;;;4999274;28;20228;-76
2022/07/23 14:36:53;;;;;;;4.47;3.20;;;;;;;;;;4999633;28;20208;-75
2022/07/23 14:39:20;;;;;;;5.47;3.47;;;;;;;;;;5004704;28;20204;-76
2022/07/23 14:41:47;;;;;;;9.63;3.13;;;;;;;;;;5005422;28;20315;-76
2022/07/23 14:44:15;;;;;;;5.10;3.43;;;;;;;;;;5003156;28;20204;-76
2022/07/23 14:46:42;;;;;;;5.33;3.00;;;;;;;;;;5001407;28;20205;-76